createdAt,value
2023-03-17T00:01:10.184Z,7.77
2023-03-17T00:03:40.723Z,7.27
2023-03-17T00:06:16.205Z,7.40
2023-03-17T00:08:43.727Z,5.20
2023-03-17T00:11:13.718Z,7.43
2023-03-17T00:13:40.261Z,4.70
2023-03-17T00:16:12.970Z,5.43
2023-03-17T00:18:40.050Z,2.20
2023-03-17T00:21:07.734Z,7.00
2023-03-17T00:23:35.264Z,5.03
2023-03-17T00:26:02.613Z,3.60
2023-03-17T00:28:29.108Z,6.90
2023-03-17T00:30:59.770Z,6.40
2023-03-17T00:33:28.100Z,8.17
2023-03-17T00:35:55.556Z,6.20
2023-03-17T00:38:24.367Z,5.13
2023-03-17T00:40:51.631Z,5.37
2023-03-17T00:43:18.790Z,8.00
2023-03-17T00:45:46.981Z,4.23
2023-03-17T00:48:16.430Z,4.93
2023-03-17T00:50:45.089Z,3.90
2023-03-17T00:53:16.814Z,6.00
2023-03-17T00:55:44.675Z,5.67
2023-03-17T00:58:19.625Z,4.90
2023-03-17T01:00:46.232Z,6.07
2023-03-17T01:03:13.498Z,5.23
2023-03-17T01:05:40.726Z,4.23
2023-03-17T01:08:07.744Z,8.57
2023-03-17T01:10:34.704Z,3.60
2023-03-17T01:13:01.354Z,3.33
2023-03-17T01:15:31.582Z,5.17
2023-03-17T01:18:02.929Z,3.67
2023-03-17T01:20:32.952Z,6.20
2023-03-17T01:23:00.497Z,4.53
2023-03-17T01:25:28.500Z,5.63
2023-03-17T01:27:59.268Z,6.27
2023-03-17T01:30:29.464Z,6.23
2023-03-17T01:32:57.506Z,6.63
2023-03-17T01:35:25.939Z,4.97
2023-03-17T01:37:52.670Z,5.37
2023-03-17T01:40:28.269Z,5.47
2023-03-17T01:43:01.290Z,5.93
2023-03-17T01:46:06.690Z,7.23
2023-03-17T01:48:43.532Z,8.73
2023-03-17T01:51:15.026Z,3.40
2023-03-17T01:53:42.251Z,2.80
2023-03-17T01:56:09.677Z,3.83
2023-03-17T01:58:36.273Z,4.00
2023-03-17T02:01:02.938Z,4.53
2023-03-17T02:03:30.160Z,5.90
2023-03-17T02:05:57.919Z,5.60
2023-03-17T02:08:24.792Z,6.53
2023-03-17T02:10:52.642Z,7.90
2023-03-17T02:13:19.450Z,10.30
2023-03-17T02:15:48.637Z,6.80
2023-03-17T02:18:18.113Z,5.50
2023-03-17T02:21:08.226Z,4.63
2023-03-17T02:23:34.775Z,11.37
2023-03-17T02:26:01.503Z,4.97
2023-03-17T02:28:30.838Z,7.83
2023-03-17T02:30:57.931Z,6.50
2023-03-17T02:33:24.528Z,6.20
2023-03-17T02:35:51.276Z,8.27
2023-03-17T02:38:17.906Z,5.20
2023-03-17T02:40:44.502Z,3.83
2023-03-17T02:43:11.013Z,10.80
2023-03-17T02:45:37.547Z,4.00
2023-03-17T02:48:04.557Z,3.67
2023-03-17T02:50:31.745Z,4.13
2023-03-17T02:52:58.638Z,4.73
2023-03-17T02:55:26.383Z,2.90
2023-03-17T02:57:53.014Z,5.77
2023-03-17T03:00:20.265Z,5.60
2023-03-17T03:02:47.046Z,4.10
2023-03-17T03:05:13.843Z,4.07
2023-03-17T03:07:40.436Z,3.33
2023-03-17T03:10:07.380Z,6.47
2023-03-17T03:12:33.995Z,6.70
2023-03-17T03:15:01.011Z,5.43
2023-03-17T03:17:27.620Z,4.63
2023-03-17T03:19:54.340Z,2.90
2023-03-17T03:22:20.838Z,2.70
2023-03-17T03:24:47.542Z,6.63
2023-03-17T03:27:14.027Z,4.77
2023-03-17T03:29:41.748Z,3.00
2023-03-17T03:32:08.477Z,7.13
2023-03-17T03:34:35.155Z,4.03
2023-03-17T03:37:02.144Z,6.17
2023-03-17T03:39:28.638Z,5.10
2023-03-17T03:41:58.504Z,3.23
2023-03-17T03:44:25.529Z,5.60
2023-03-17T03:46:55.141Z,8.00
2023-03-17T03:49:38.078Z,4.47
2023-03-17T03:52:04.861Z,8.30
2023-03-17T03:54:31.342Z,6.00
2023-03-17T03:56:57.856Z,5.53
2023-03-17T03:59:24.287Z,7.83
2023-03-17T04:01:50.918Z,7.97
2023-03-17T04:04:17.603Z,3.10
2023-03-17T04:06:44.269Z,4.67
2023-03-17T04:09:10.812Z,6.43
2023-03-17T04:11:37.252Z,6.20
2023-03-17T04:14:04.241Z,5.93
2023-03-17T04:16:30.975Z,5.87
2023-03-17T04:18:57.839Z,6.77
2023-03-17T04:21:24.351Z,4.17
2023-03-17T04:23:51.201Z,12.00
2023-03-17T04:26:18.973Z,3.67
2023-03-17T04:28:45.500Z,2.83
2023-03-17T04:31:12.477Z,4.60
2023-03-17T04:33:39.614Z,5.87
2023-03-17T04:36:07.807Z,3.43
2023-03-17T04:38:34.745Z,6.83
2023-03-17T04:41:01.503Z,16.93
2023-03-17T04:43:28.116Z,7.67
2023-03-17T04:45:54.678Z,8.83
2023-03-17T04:48:21.659Z,3.60
2023-03-17T04:50:48.371Z,2.43
2023-03-17T04:53:15.083Z,4.90
2023-03-17T04:55:42.165Z,10.23
2023-03-17T04:58:10.356Z,4.10
2023-03-17T05:00:39.000Z,4.23
2023-03-17T05:03:19.999Z,6.90
2023-03-17T05:05:52.723Z,4.90
2023-03-17T05:08:20.744Z,4.93
2023-03-17T05:10:47.319Z,14.77
2023-03-17T05:13:13.868Z,8.83
2023-03-17T05:15:40.600Z,3.00
2023-03-17T05:18:07.149Z,10.13
2023-03-17T05:20:33.685Z,4.77
2023-03-17T05:23:00.211Z,6.87
2023-03-17T05:25:26.772Z,7.67
2023-03-17T05:27:53.248Z,6.93
2023-03-17T05:30:19.751Z,4.03
2023-03-17T05:32:47.047Z,5.47
2023-03-17T05:35:13.763Z,2.57
2023-03-17T05:37:40.423Z,7.87
2023-03-17T05:40:08.434Z,3.23
2023-03-17T05:42:35.044Z,4.30
2023-03-17T05:45:01.521Z,7.00
2023-03-17T05:47:28.392Z,3.63
2023-03-17T05:49:55.056Z,2.93
2023-03-17T05:52:22.144Z,4.10
2023-03-17T05:54:49.142Z,4.50
2023-03-17T05:57:16.393Z,6.67
2023-03-17T05:59:42.959Z,2.50
2023-03-17T06:02:09.890Z,4.50
2023-03-17T06:04:36.609Z,3.93
2023-03-17T06:07:03.662Z,6.20
2023-03-17T06:09:30.419Z,5.87
2023-03-17T06:11:57.783Z,5.97
2023-03-17T06:14:26.939Z,4.20
2023-03-17T06:16:53.760Z,4.47
2023-03-17T06:19:20.582Z,3.13
2023-03-17T06:21:47.410Z,2.67
2023-03-17T06:24:14.212Z,8.47
2023-03-17T06:26:41.134Z,4.50
2023-03-17T06:29:11.811Z,6.70
2023-03-17T06:31:39.304Z,4.80
2023-03-17T06:34:06.952Z,7.53
2023-03-17T06:36:33.945Z,12.17
2023-03-17T06:39:00.778Z,5.33
2023-03-17T06:41:27.691Z,4.40
2023-03-17T06:43:54.201Z,4.63
2023-03-17T06:46:21.054Z,4.57
2023-03-17T06:48:47.821Z,7.00
2023-03-17T06:51:14.348Z,9.03
2023-03-17T06:53:41.319Z,6.73
2023-03-17T06:56:12.545Z,10.30
2023-03-17T06:58:43.716Z,4.50
2023-03-17T07:01:10.418Z,9.60
2023-03-17T07:03:38.530Z,6.20
2023-03-17T07:06:05.252Z,6.60
2023-03-17T07:08:32.056Z,4.50
2023-03-17T07:10:59.122Z,7.80
2023-03-17T07:13:25.878Z,4.10
2023-03-17T07:15:54.592Z,3.30
2023-03-17T07:18:22.117Z,4.10
2023-03-17T07:20:48.674Z,4.37
2023-03-17T07:23:23.109Z,5.50
2023-03-17T07:25:50.749Z,4.80
2023-03-17T07:28:18.638Z,6.33
2023-03-17T07:30:47.066Z,4.17
2023-03-17T07:33:14.170Z,7.73
2023-03-17T07:35:41.722Z,8.13
2023-03-17T07:38:08.592Z,10.30
2023-03-17T07:40:35.913Z,11.10
2023-03-17T07:43:02.909Z,4.80
2023-03-17T07:45:29.696Z,3.57
2023-03-17T07:47:56.524Z,7.93
2023-03-17T07:50:23.430Z,4.33
2023-03-17T07:52:49.878Z,5.40
2023-03-17T07:55:16.591Z,6.80
2023-03-17T07:57:43.698Z,4.37
2023-03-17T08:00:10.810Z,12.17
2023-03-17T08:02:37.756Z,6.77
2023-03-17T08:05:04.984Z,6.77
2023-03-17T08:07:32.068Z,3.87
2023-03-17T08:09:59.000Z,5.27
2023-03-17T08:12:25.801Z,4.50
2023-03-17T08:14:53.033Z,9.00
2023-03-17T08:17:19.898Z,8.10
2023-03-17T08:19:46.806Z,8.63
2023-03-17T08:22:13.463Z,6.80
2023-03-17T08:24:42.900Z,13.30
2023-03-17T08:27:09.566Z,6.13
2023-03-17T08:29:36.151Z,5.60
2023-03-17T08:32:03.413Z,3.90
2023-03-17T08:34:30.216Z,2.83
2023-03-17T08:36:57.709Z,7.57
2023-03-17T08:39:24.594Z,5.80
2023-03-17T08:41:51.204Z,5.63
2023-03-17T08:44:18.125Z,5.63
2023-03-17T08:46:44.767Z,6.57
2023-03-17T08:49:12.604Z,7.70
2023-03-17T08:51:39.596Z,6.47
2023-03-17T08:54:07.016Z,9.10
2023-03-17T08:56:34.222Z,4.43
2023-03-17T08:59:00.983Z,4.77
2023-03-17T09:01:28.133Z,7.97
2023-03-17T09:03:56.063Z,5.50
2023-03-17T09:06:23.603Z,9.03
2023-03-17T09:08:55.345Z,10.33
2023-03-17T09:11:24.796Z,6.77
2023-03-17T09:13:51.912Z,5.33
2023-03-17T09:16:18.826Z,6.80
2023-03-17T09:18:46.754Z,7.13
2023-03-17T09:21:14.001Z,6.30
2023-03-17T09:23:41.196Z,6.43
2023-03-17T09:26:09.104Z,6.20
2023-03-17T09:28:35.805Z,6.80
2023-03-17T09:31:05.359Z,2.80
2023-03-17T09:33:32.119Z,6.10
2023-03-17T09:35:58.761Z,6.40
2023-03-17T09:38:27.809Z,4.13
2023-03-17T09:41:03.394Z,6.63
2023-03-17T09:43:37.173Z,7.90
2023-03-17T09:46:57.879Z,7.43
2023-03-17T09:49:55.308Z,5.87
2023-03-17T09:52:34.029Z,5.63
2023-03-17T09:55:01.803Z,10.97
2023-03-17T09:57:39.815Z,9.47
2023-03-17T10:00:17.214Z,6.87
2023-03-17T10:02:44.069Z,7.60
2023-03-17T10:05:13.385Z,12.13
2023-03-17T10:08:26.953Z,4.20
2023-03-17T10:11:11.131Z,9.13
2023-03-17T10:13:52.870Z,4.87
2023-03-17T10:16:22.104Z,9.60
2023-03-17T10:18:53.217Z,6.23
2023-03-17T10:21:24.348Z,9.47
2023-03-17T10:23:51.257Z,11.13
2023-03-17T10:26:44.006Z,7.20
2023-03-17T10:29:24.219Z,7.80
2023-03-17T10:31:52.817Z,7.10
2023-03-17T10:34:23.876Z,18.40
2023-03-17T10:36:55.242Z,6.20
2023-03-17T10:39:24.130Z,7.33
2023-03-17T10:41:58.773Z,6.20
2023-03-17T10:44:38.587Z,6.80
2023-03-17T10:47:05.375Z,8.30
2023-03-17T10:49:36.241Z,5.33
2023-03-17T10:52:08.166Z,9.70
2023-03-17T10:54:38.534Z,4.10
2023-03-17T10:57:09.491Z,7.60
2023-03-17T10:59:44.440Z,10.63
2023-03-17T11:02:30.633Z,13.47
2023-03-17T11:05:22.209Z,8.07
2023-03-17T11:07:49.076Z,7.20
2023-03-17T11:10:27.323Z,11.93
2023-03-17T11:13:01.994Z,5.70
2023-03-17T11:15:33.865Z,7.93
2023-03-17T11:18:07.841Z,6.00
2023-03-17T11:21:07.115Z,5.00
2023-03-17T11:23:53.230Z,8.20
2023-03-17T11:26:38.525Z,8.47
2023-03-17T11:29:24.679Z,5.93
2023-03-17T11:32:43.662Z,9.50
2023-03-17T11:35:44.367Z,4.13
2023-03-17T11:38:28.392Z,5.53
2023-03-17T11:41:04.929Z,4.87
2023-03-17T11:43:45.433Z,6.57
2023-03-17T11:46:33.784Z,9.93
2023-03-17T11:49:36.186Z,13.63
2023-03-17T11:52:10.248Z,7.93
2023-03-17T11:54:47.504Z,8.10
2023-03-17T11:57:35.825Z,6.43
2023-03-17T12:00:07.096Z,8.53
2023-03-17T12:02:41.229Z,11.80
2023-03-17T12:05:18.980Z,5.37
2023-03-17T12:07:55.213Z,8.70
2023-03-17T12:10:36.799Z,10.50
2023-03-17T12:13:13.272Z,6.30
2023-03-17T12:15:47.708Z,4.60
2023-03-17T12:18:27.912Z,7.17
2023-03-17T12:21:20.872Z,6.70
2023-03-17T12:24:02.329Z,5.30
2023-03-17T12:26:36.189Z,10.30
2023-03-17T12:29:12.898Z,6.27
2023-03-17T12:31:44.940Z,10.63
2023-03-17T12:34:57.072Z,9.60
2023-03-17T12:37:26.043Z,8.63
2023-03-17T12:40:02.294Z,8.33
2023-03-17T12:42:37.098Z,9.03
2023-03-17T12:45:34.362Z,5.43
2023-03-17T12:48:19.124Z,8.13
2023-03-17T12:51:23.223Z,9.33
2023-03-17T12:53:51.644Z,5.90
2023-03-17T12:56:18.352Z,7.40
2023-03-17T12:58:46.886Z,3.20
2023-03-17T13:01:37.469Z,4.13
2023-03-17T13:04:12.848Z,9.83
2023-03-17T13:06:42.683Z,8.50
2023-03-17T13:09:43.031Z,5.80
2023-03-17T13:12:35.796Z,10.50
2023-03-17T13:15:02.719Z,6.40
2023-03-17T13:17:29.138Z,7.93
2023-03-17T13:20:07.748Z,13.40
2023-03-17T13:22:37.669Z,19.47
2023-03-17T13:25:26.082Z,10.33
2023-03-17T13:27:52.600Z,6.47
2023-03-17T13:30:26.985Z,7.40
2023-03-17T13:33:04.394Z,8.80
2023-03-17T13:35:47.749Z,8.57
2023-03-17T13:38:37.679Z,3.43
2023-03-17T13:41:07.149Z,12.83
2023-03-17T13:43:50.427Z,7.90
2023-03-17T13:46:21.311Z,5.00
2023-03-17T13:48:48.449Z,8.30
2023-03-17T13:51:22.369Z,5.57
2023-03-17T13:53:55.692Z,6.70
2023-03-17T13:56:36.253Z,3.20
2023-03-17T13:59:02.821Z,11.27
2023-03-17T14:01:34.988Z,10.90
2023-03-17T14:04:04.471Z,12.33
2023-03-17T14:06:34.779Z,8.00
2023-03-17T14:09:08.266Z,9.73
2023-03-17T14:11:38.092Z,6.37
2023-03-17T14:14:41.337Z,8.80
2023-03-17T14:17:17.045Z,9.73
2023-03-17T14:20:18.482Z,7.90
2023-03-17T14:22:47.340Z,8.33
2023-03-17T14:25:19.476Z,13.33
2023-03-17T14:27:53.036Z,9.27
2023-03-17T14:30:24.338Z,7.90
2023-03-17T14:32:58.182Z,7.70
2023-03-17T14:35:24.778Z,9.40
2023-03-17T14:37:51.402Z,10.33
2023-03-17T14:40:20.883Z,6.57
2023-03-17T14:42:47.476Z,9.27
2023-03-17T14:45:38.007Z,6.63
2023-03-17T14:48:04.568Z,11.90
2023-03-17T14:50:32.331Z,9.33
2023-03-17T14:52:59.982Z,21.47
2023-03-17T14:55:36.287Z,5.77
2023-03-17T14:58:09.118Z,9.03
2023-03-17T15:00:44.874Z,9.73
2023-03-17T15:03:21.918Z,11.93
2023-03-17T15:05:48.944Z,16.37
2023-03-17T15:08:35.115Z,8.57
2023-03-17T15:11:04.271Z,18.83
2023-03-17T15:13:34.488Z,8.53
2023-03-17T15:16:07.526Z,10.10
2023-03-17T15:18:34.081Z,9.70
2023-03-17T15:21:01.185Z,11.60
2023-03-17T15:23:29.046Z,13.63
2023-03-17T15:25:56.740Z,15.17
2023-03-17T15:28:29.850Z,9.60
2023-03-17T15:30:59.737Z,11.67
2023-03-17T15:33:29.496Z,8.23
2023-03-17T15:35:56.886Z,13.33
2023-03-17T15:38:24.631Z,12.13
2023-03-17T15:40:51.126Z,7.43
2023-03-17T15:43:18.533Z,12.20
2023-03-17T15:45:45.331Z,9.83
2023-03-17T15:48:17.674Z,14.27
2023-03-17T15:50:45.350Z,11.33
2023-03-17T15:53:13.868Z,8.40
2023-03-17T15:55:40.527Z,13.43
2023-03-17T15:58:07.266Z,12.93
2023-03-17T16:00:34.944Z,19.20
2023-03-17T16:03:15.521Z,16.93
2023-03-17T16:05:43.379Z,15.67
2023-03-17T16:08:18.261Z,13.00
2023-03-17T16:10:45.430Z,17.43
2023-03-17T16:13:12.296Z,11.73
2023-03-17T16:15:41.389Z,12.80
2023-03-17T16:18:16.813Z,14.13
2023-03-17T16:20:44.946Z,14.90
2023-03-17T16:23:16.465Z,17.40
2023-03-17T16:25:43.372Z,12.27
2023-03-17T16:28:22.252Z,14.60
2023-03-17T16:30:49.832Z,10.37
2023-03-17T16:33:21.273Z,16.43
2023-03-17T16:35:52.417Z,18.27
2023-03-17T16:38:21.761Z,18.47
2023-03-17T16:40:51.036Z,13.20
2023-03-17T16:43:31.535Z,14.80
2023-03-17T16:45:59.655Z,11.20
2023-03-17T16:48:26.774Z,12.60
2023-03-17T16:50:54.056Z,11.80
2023-03-17T16:53:20.735Z,12.50
2023-03-17T16:55:47.756Z,11.53
2023-03-17T16:58:26.067Z,13.43
2023-03-17T17:00:54.655Z,5.47
2023-03-17T17:03:21.419Z,147.80
2023-03-17T17:05:48.040Z,132.97
2023-03-17T17:08:14.831Z,76.43
2023-03-17T17:10:41.375Z,51.27
2023-03-17T17:13:09.439Z,29.37
2023-03-17T17:15:36.573Z,20.93
2023-03-17T17:18:05.865Z,13.90
2023-03-17T17:20:39.762Z,17.07
2023-03-17T17:23:10.928Z,18.80
2023-03-17T17:25:37.520Z,11.00
2023-03-17T17:28:04.141Z,9.07
2023-03-17T17:30:31.258Z,14.60
2023-03-17T17:32:59.525Z,8.20
2023-03-17T17:35:27.773Z,9.13
2023-03-17T17:37:54.351Z,7.83
2023-03-17T17:40:24.524Z,10.03
2023-03-17T17:42:52.276Z,12.73
2023-03-17T17:45:20.236Z,11.57
2023-03-17T17:47:47.293Z,13.03
2023-03-17T17:50:21.287Z,16.07
2023-03-17T17:52:48.065Z,17.63
2023-03-17T17:55:14.670Z,14.77
2023-03-17T17:57:41.912Z,14.23
2023-03-17T18:00:12.787Z,8.17
2023-03-17T18:02:39.473Z,6.43
2023-03-17T18:05:08.272Z,14.50
2023-03-17T18:07:35.294Z,13.97
2023-03-17T18:10:02.430Z,14.20
2023-03-17T18:12:28.938Z,12.97
2023-03-17T18:14:55.996Z,12.00
2023-03-17T18:17:22.610Z,18.07
2023-03-17T18:19:50.522Z,15.40
2023-03-17T18:22:16.994Z,20.80
2023-03-17T18:24:44.054Z,17.80
2023-03-17T18:27:11.525Z,18.70
2023-03-17T18:29:38.348Z,15.93
2023-03-17T18:32:06.055Z,12.90
2023-03-17T18:34:35.796Z,10.03
2023-03-17T18:37:02.464Z,12.17
2023-03-17T18:39:29.719Z,15.90
2023-03-17T18:41:56.439Z,14.37
2023-03-17T18:44:24.923Z,12.23
2023-03-17T18:46:51.565Z,13.70
2023-03-17T18:49:18.091Z,12.87
2023-03-17T18:51:44.687Z,20.80
2023-03-17T18:54:11.804Z,16.90
2023-03-17T18:56:38.543Z,13.67
2023-03-17T18:59:05.373Z,11.00
2023-03-17T19:01:31.883Z,11.97
2023-03-17T19:03:58.493Z,20.20
2023-03-17T19:06:25.261Z,16.93
2023-03-17T19:08:51.886Z,21.17
2023-03-17T19:11:21.310Z,15.80
2023-03-17T19:13:47.931Z,20.80
2023-03-17T19:16:15.500Z,23.40
2023-03-17T19:18:42.482Z,23.40
2023-03-17T19:21:09.774Z,30.90
2023-03-17T19:23:38.168Z,17.30
2023-03-17T19:26:05.876Z,18.40
2023-03-17T19:28:33.386Z,22.80
2023-03-17T19:31:00.640Z,18.27
2023-03-17T19:33:28.953Z,18.90
2023-03-17T19:35:57.231Z,19.20
2023-03-17T19:38:24.403Z,22.27
2023-03-17T19:40:51.723Z,25.03
2023-03-17T19:43:32.754Z,25.00
2023-03-17T19:46:05.133Z,17.50
2023-03-17T19:48:32.204Z,22.00
2023-03-17T19:50:58.801Z,16.50
2023-03-17T19:53:25.414Z,14.00
2023-03-17T19:55:51.916Z,21.20
2023-03-17T19:58:18.522Z,19.63
2023-03-17T20:00:45.340Z,22.53
2023-03-17T20:03:12.717Z,22.87
2023-03-17T20:05:39.552Z,29.90
2023-03-17T20:08:07.768Z,20.47
2023-03-17T20:10:34.232Z,18.90
2023-03-17T20:13:01.922Z,15.50
2023-03-17T20:15:28.481Z,12.77
2023-03-17T20:17:55.074Z,14.13
2023-03-17T20:20:21.597Z,16.33
2023-03-17T20:22:48.180Z,24.67
2023-03-17T20:25:14.950Z,20.23
2023-03-17T20:27:41.630Z,16.03
2023-03-17T20:30:09.588Z,17.00
2023-03-17T20:32:36.212Z,18.00
2023-03-17T20:35:02.894Z,18.70
2023-03-17T20:37:29.587Z,19.27
2023-03-17T20:39:57.380Z,23.57
2023-03-17T20:42:24.308Z,19.40
2023-03-17T20:44:53.000Z,22.00
2023-03-17T20:47:21.071Z,28.40
2023-03-17T20:49:47.974Z,23.10
2023-03-17T20:52:14.975Z,23.73
2023-03-17T20:54:41.738Z,29.20
2023-03-17T20:57:11.693Z,23.50
2023-03-17T20:59:38.157Z,21.80
2023-03-17T21:02:05.020Z,33.67
2023-03-17T21:04:31.832Z,16.77
2023-03-17T21:06:58.389Z,16.20
2023-03-17T21:09:24.892Z,16.50
2023-03-17T21:11:51.510Z,23.47
2023-03-17T21:14:18.436Z,23.53
2023-03-17T21:16:47.266Z,15.67
2023-03-17T21:19:15.371Z,15.33
2023-03-17T21:21:41.939Z,19.00
2023-03-17T21:24:16.860Z,21.20
2023-03-17T21:26:43.368Z,13.77
2023-03-17T21:29:10.343Z,12.30
2023-03-17T21:31:38.516Z,19.73
2023-03-17T21:34:05.095Z,13.57
2023-03-17T21:36:31.910Z,11.50
2023-03-17T21:38:58.479Z,18.43
2023-03-17T21:41:33.628Z,17.00
2023-03-17T21:44:01.348Z,19.60
2023-03-17T21:46:29.752Z,15.20
2023-03-17T21:48:57.221Z,26.57
2023-03-17T21:51:24.560Z,18.80
2023-03-17T21:53:51.480Z,19.27
2023-03-17T21:56:18.739Z,18.17
2023-03-17T21:58:45.684Z,19.40
2023-03-17T22:01:12.360Z,13.57
2023-03-17T22:03:39.941Z,19.80
2023-03-17T22:06:07.092Z,10.63
2023-03-17T22:08:34.510Z,12.23
2023-03-17T22:11:06.125Z,11.80
2023-03-17T22:13:32.574Z,6.73
2023-03-17T22:15:59.682Z,13.70
2023-03-17T22:18:27.111Z,8.03
2023-03-17T22:20:54.969Z,12.83
2023-03-17T22:23:21.778Z,14.70
2023-03-17T22:25:48.674Z,12.07
2023-03-17T22:28:15.707Z,12.10
2023-03-17T22:30:42.878Z,8.47
2023-03-17T22:33:10.246Z,12.00
2023-03-17T22:35:38.091Z,9.97
2023-03-17T22:38:06.514Z,8.90
2023-03-17T22:40:33.929Z,16.00
2023-03-17T22:43:01.040Z,11.43
2023-03-17T22:45:27.653Z,7.13
2023-03-17T22:47:55.476Z,10.90
2023-03-17T22:50:22.594Z,10.80
2023-03-17T22:52:49.437Z,7.00
2023-03-17T22:55:16.220Z,13.10
2023-03-17T22:57:42.712Z,11.40
2023-03-17T23:00:15.397Z,20.43
2023-03-17T23:02:42.986Z,10.03
2023-03-17T23:05:09.841Z,16.80
2023-03-17T23:07:49.517Z,20.63
2023-03-17T23:10:18.517Z,22.03
2023-03-17T23:12:44.984Z,20.60
2023-03-17T23:15:11.708Z,13.30
2023-03-17T23:17:38.521Z,21.77
2023-03-17T23:20:06.485Z,13.80
2023-03-17T23:22:33.325Z,23.57
2023-03-17T23:25:01.137Z,16.47
2023-03-17T23:27:28.198Z,17.50
2023-03-17T23:29:54.893Z,20.63
2023-03-17T23:32:21.574Z,16.63
2023-03-17T23:34:48.103Z,15.43
2023-03-17T23:37:14.779Z,19.23
2023-03-17T23:39:41.639Z,15.83
2023-03-17T23:42:08.179Z,15.70
2023-03-17T23:44:34.636Z,22.53
2023-03-17T23:47:01.817Z,20.57
2023-03-17T23:49:28.260Z,16.73
2023-03-17T23:51:54.855Z,17.87
2023-03-17T23:54:21.385Z,14.13
2023-03-17T23:56:48.184Z,15.13
2023-03-17T23:59:14.836Z,20.33
